Portada
METAR-TAF:

METAR-TAF

Aeropuertos :

Lyon, Francia

latitud: 45-43N, longitud: 004-57E, altitud: 200 m

Observación

El informe se hizo hace 20 minutos, a las 19:30 UTC
Viento 4 kt del norte, variando entre norte y este-noreste
Temperatura 15°C
Humedad 55%
Presión 1026 hPa
Visibilidad 10 km o más
sin nubes por debajo de 1500 m y sin presencia de cumulonimbus.

METAR: LFLY 281930Z AUTO 36004KT 350V060 CAVOK 15/06 Q1026 NOSIG

Hora: 21:50 (19:50 UTC)

Pronóstico

El informe se hizo hace 2 horas y 50 minutos, a las 17:00 UTC
Pronóstico válido del 28 a las 18 UTC al 29 a las 18 UTC
Viento 5 kt del norte
Visibilidad 10 km o más
sin nubes por debajo de 1500 m y sin presencia de cumulonimbus.

TAF: LFLY 281700Z 2818/2918 36005KT CAVOK

Observaciones y pronósticos meteorológicos de más de 4000 aeropuertos (mensajes METAR y TAF).

Los puntos amarillos y rojos representan las estaciones disponibles.

Ponga el ratón en el punto deseado para ver el nombre de la estación.

Haga clic para ver las observaciones y los pronósticos meteorológicos.

Para cambiar el mapa : haga clic en los botones verdes con una cruz de color negro para hacer un zoom, en el botón verde con un guión para alejar o en las flechas verdes para mapas adyacentes.


METAR-TAF: